Time;durP1;ratioP1;P1;durP2;ratioP2;P2;SDS_P1;SDS_P2;PMS_P1;PMS_P2;Temp;Humidity;BMP_temperature;BMP_pressure;BME280_temperature;BME280_humidity;BME280_pressure;Samples;Min_cycle;Max_cycle;Signal;HPM_P1;HPM_P2
2021/01/05 00:01:36;;;;;;;7.17;4.80;;;;;;;;;;4407906;32;20197;-80
2021/01/05 00:04:02;;;;;;;7.33;4.90;;;;;;;;;;4408233;32;20135;-80
2021/01/05 00:06:27;;;;;;;9.37;4.53;;;;;;;;;;4407579;32;20143;-81
2021/01/05 00:08:52;;;;;;;8.67;4.93;;;;;;;;;;4407657;32;20230;-81
2021/01/05 00:11:18;;;;;;;8.63;5.03;;;;;;;;;;4393762;32;20226;-79
2021/01/05 00:13:43;;;;;;;7.37;4.90;;;;;;;;;;4407813;32;20143;-80
2021/01/05 00:16:08;;;;;;;6.53;4.77;;;;;;;;;;4413903;32;20475;-80
2021/01/05 00:18:34;;;;;;;7.77;4.40;;;;;;;;;;4424080;32;20134;-81
2021/01/05 00:20:59;;;;;;;8.23;4.77;;;;;;;;;;4422890;32;20138;-80
2021/01/05 00:23:24;;;;;;;8.43;4.87;;;;;;;;;;4422794;32;20142;-80
2021/01/05 00:25:49;;;;;;;7.93;4.90;;;;;;;;;;4422862;32;20142;-81
2021/01/05 00:28:15;;;;;;;7.70;5.07;;;;;;;;;;4422985;32;20133;-80
2021/01/05 00:30:40;;;;;;;9.83;5.03;;;;;;;;;;4408745;32;20279;-80
2021/01/05 00:33:05;;;;;;;8.93;5.23;;;;;;;;;;4420632;32;20141;-81
2021/01/05 00:35:33;;;;;;;9.20;5.23;;;;;;;;;;4422766;32;20169;-81
2021/01/05 00:38:05;;;;;;;9.10;5.20;;;;;;;;;;4409005;32;20185;-80
2021/01/05 00:40:31;;;;;;;8.50;5.13;;;;;;;;;;4422930;32;20133;-80
2021/01/05 00:42:56;;;;;;;7.23;5.07;;;;;;;;;;4422561;32;20134;-81
2021/01/05 00:45:23;;;;;;;7.03;5.30;;;;;;;;;;4422848;32;20197;-81
2021/01/05 00:47:48;;;;;;;9.93;5.27;;;;;;;;;;4423504;32;20146;-81
2021/01/05 00:50:14;;;;;;;9.97;5.33;;;;;;;;;;4422378;32;20137;-81
2021/01/05 00:52:39;;;;;;;7.43;5.20;;;;;;;;;;4422934;32;20135;-81
2021/01/05 00:55:05;;;;;;;8.70;5.17;;;;;;;;;;4422853;32;20546;-80
2021/01/05 00:57:30;;;;;;;8.97;5.37;;;;;;;;;;4422275;32;20157;-80
2021/01/05 00:59:55;;;;;;;9.30;5.13;;;;;;;;;;4421382;32;20157;-80
2021/01/05 01:02:20;;;;;;;7.60;5.00;;;;;;;;;;4415040;32;20204;-81
2021/01/05 01:04:46;;;;;;;8.77;5.27;;;;;;;;;;4406594;32;20185;-80
2021/01/05 01:07:11;;;;;;;8.37;5.57;;;;;;;;;;4406147;32;20134;-80
2021/01/05 01:09:36;;;;;;;7.57;5.00;;;;;;;;;;4392286;32;20177;-80
2021/01/05 01:12:04;;;;;;;7.67;5.20;;;;;;;;;;4406305;32;20130;-80
2021/01/05 01:14:32;;;;;;;7.73;5.30;;;;;;;;;;4392921;32;20162;-80
2021/01/05 01:17:01;;;;;;;7.87;5.10;;;;;;;;;;4407102;32;20141;-80
2021/01/05 01:19:26;;;;;;;7.57;4.90;;;;;;;;;;4405990;32;20203;-80
2021/01/05 01:21:52;;;;;;;9.73;5.17;;;;;;;;;;4406438;32;20146;-80
2021/01/05 01:24:18;;;;;;;8.97;5.50;;;;;;;;;;4406819;32;20492;-80
2021/01/05 01:26:44;;;;;;;9.30;5.30;;;;;;;;;;4406283;32;20150;-80
2021/01/05 01:29:09;;;;;;;9.33;5.30;;;;;;;;;;4406925;32;20172;-81
2021/01/05 01:31:34;;;;;;;7.77;5.23;;;;;;;;;;4405941;32;20134;-80
2021/01/05 01:34:00;;;;;;;7.03;5.20;;;;;;;;;;4391978;32;20212;-80
2021/01/05 01:36:25;;;;;;;10.50;5.47;;;;;;;;;;4406046;32;20134;-80
2021/01/05 01:38:50;;;;;;;7.47;5.00;;;;;;;;;;4405802;32;20172;-80
2021/01/05 01:41:16;;;;;;;9.13;5.60;;;;;;;;;;4406057;32;20134;-80
2021/01/05 01:43:41;;;;;;;7.27;5.10;;;;;;;;;;4406008;32;20575;-80
2021/01/05 01:46:09;;;;;;;8.17;5.13;;;;;;;;;;4392312;32;20517;-80
2021/01/05 01:48:35;;;;;;;7.80;4.93;;;;;;;;;;4405824;32;20154;-80
2021/01/05 01:51:01;;;;;;;7.30;4.93;;;;;;;;;;4391733;32;20174;-80
2021/01/05 01:54:01;;;;;;;8.07;5.10;;;;;;;;;;4420006;32;20169;-80
2021/01/05 01:57:05;;;;;;;9.03;5.10;;;;;;;;;;4406562;32;20196;-80
2021/01/05 01:59:56;;;;;;;8.23;4.70;;;;;;;;;;4421899;32;20212;-80
2021/01/05 02:02:30;;;;;;;8.53;5.20;;;;;;;;;;4418544;32;20189;-79
2021/01/05 02:04:59;;;;;;;7.70;5.10;;;;;;;;;;4394340;32;20180;-80
2021/01/05 02:07:39;;;;;;;7.10;5.17;;;;;;;;;;4392887;32;20162;-80
2021/01/05 02:10:40;;;;;;;8.20;5.57;;;;;;;;;;4406817;32;20205;-80
2021/01/05 02:13:15;;;;;;;8.10;5.37;;;;;;;;;;4406078;32;20139;-80
2021/01/05 02:15:59;;;;;;;8.43;5.80;;;;;;;;;;4406735;32;20156;-80
2021/01/05 02:18:31;;;;;;;7.83;5.20;;;;;;;;;;4406240;32;20150;-80
2021/01/05 02:20:58;;;;;;;7.80;5.07;;;;;;;;;;4392759;32;20161;-80
2021/01/05 02:23:30;;;;;;;8.83;5.30;;;;;;;;;;4406901;32;20229;-80
2021/01/05 02:26:14;;;;;;;10.17;5.90;;;;;;;;;;4406436;32;20188;-80
2021/01/05 02:28:48;;;;;;;9.07;5.57;;;;;;;;;;4406616;32;20149;-81
2021/01/05 02:31:21;;;;;;;9.27;6.00;;;;;;;;;;4406027;32;20154;-80
2021/01/05 02:34:05;;;;;;;;;;;;;;;;;;;;;
2021/01/05 02:36:44;;;;;;;9.27;5.80;;;;;;;;;;4421773;32;20536;-80
2021/01/05 02:39:20;;;;;;;9.07;5.90;;;;;;;;;;4421328;32;20145;-80
2021/01/05 02:41:48;;;;;;;8.27;5.70;;;;;;;;;;4421024;32;20136;-80
2021/01/05 02:44:32;;;;;;;8.70;5.73;;;;;;;;;;4420992;32;20164;-80
2021/01/05 02:47:04;;;;;;;11.83;6.30;;;;;;;;;;4420653;32;20187;-80
2021/01/05 02:49:32;;;;;;;8.87;5.53;;;;;;;;;;4421071;32;20590;-81
2021/01/05 02:52:16;;;;;;;10.63;6.13;;;;;;;;;;4420876;32;20200;-81
2021/01/05 02:55:02;;;;;;;9.20;5.90;;;;;;;;;;4421596;32;20192;-81
2021/01/05 02:57:46;;;;;;;9.40;6.00;;;;;;;;;;4420227;32;20190;-80
2021/01/05 03:00:11;;;;;;;10.20;6.07;;;;;;;;;;4421653;32;20573;-80
2021/01/05 03:02:55;;;;;;;10.70;6.13;;;;;;;;;;4420939;32;20164;-81
2021/01/05 03:05:20;;;;;;;11.13;6.17;;;;;;;;;;4420287;32;20570;-80
2021/01/05 03:07:46;;;;;;;10.00;5.87;;;;;;;;;;4420910;32;20134;-80
2021/01/05 03:10:21;;;;;;;9.67;6.47;;;;;;;;;;4420531;32;20287;-80
2021/01/05 03:12:56;;;;;;;8.83;5.87;;;;;;;;;;4421372;32;20588;-81
2021/01/05 03:15:31;;;;;;;8.83;5.50;;;;;;;;;;4421228;32;20130;-80
2021/01/05 03:18:02;;;;;;;9.97;6.33;;;;;;;;;;4421298;32;20547;-80
2021/01/05 03:20:33;;;;;;;12.10;6.03;;;;;;;;;;4421026;32;20142;-80
2021/01/05 03:23:03;;;;;;;8.80;5.47;;;;;;;;;;4421033;32;20134;-80
2021/01/05 03:25:30;;;;;;;10.17;6.20;;;;;;;;;;4420121;32;20556;-80
2021/01/05 03:27:57;;;;;;;10.20;6.10;;;;;;;;;;4420469;32;20161;-80
2021/01/05 03:30:26;;;;;;;8.67;5.53;;;;;;;;;;4420405;32;20192;-80
2021/01/05 03:32:51;;;;;;;10.00;5.73;;;;;;;;;;4420460;32;20237;-81
2021/01/05 03:35:16;;;;;;;9.53;6.20;;;;;;;;;;4420544;32;20138;-80
2021/01/05 03:37:42;;;;;;;11.53;6.00;;;;;;;;;;4420139;32;20134;-80
2021/01/05 03:40:10;;;;;;;9.83;6.07;;;;;;;;;;4420273;32;20164;-80
2021/01/05 03:42:36;;;;;;;10.27;5.97;;;;;;;;;;4420293;32;20585;-80
2021/01/05 03:45:02;;;;;;;10.47;6.30;;;;;;;;;;4420293;32;20226;-80
2021/01/05 03:47:27;;;;;;;10.33;6.00;;;;;;;;;;4420549;32;20183;-80
2021/01/05 03:49:53;;;;;;;10.87;5.67;;;;;;;;;;4420386;32;20161;-80
2021/01/05 03:52:18;;;;;;;9.37;6.20;;;;;;;;;;4408657;32;20145;-80
2021/01/05 03:54:43;;;;;;;10.10;6.30;;;;;;;;;;4405923;32;20130;-80
2021/01/05 03:57:08;;;;;;;10.00;6.07;;;;;;;;;;4405242;32;20151;-80
2021/01/05 03:59:34;;;;;;;9.30;5.57;;;;;;;;;;4404601;32;20449;-80
2021/01/05 04:01:59;;;;;;;10.20;6.70;;;;;;;;;;4404783;32;20172;-80
2021/01/05 04:04:24;;;;;;;10.23;6.03;;;;;;;;;;4404803;32;20138;-80
2021/01/05 04:06:53;;;;;;;11.47;6.07;;;;;;;;;;4405109;32;20138;-81
2021/01/05 04:09:18;;;;;;;10.43;5.90;;;;;;;;;;4390946;32;20617;-80
2021/01/05 04:11:43;;;;;;;10.07;6.13;;;;;;;;;;4404773;32;20189;-80
2021/01/05 04:14:16;;;;;;;10.63;6.27;;;;;;;;;;4405474;32;20143;-80
2021/01/05 04:16:47;;;;;;;8.77;5.67;;;;;;;;;;4405753;32;20228;-80
2021/01/05 04:19:13;;;;;;;9.40;5.63;;;;;;;;;;4405641;32;20142;-81
2021/01/05 04:21:38;;;;;;;11.13;6.30;;;;;;;;;;4404669;32;20163;-80
2021/01/05 04:24:03;;;;;;;10.57;6.37;;;;;;;;;;4416175;32;20150;-80
2021/01/05 04:26:28;;;;;;;8.77;5.87;;;;;;;;;;4419852;32;20160;-80
2021/01/05 04:28:54;;;;;;;10.90;6.17;;;;;;;;;;4420518;32;20161;-80
2021/01/05 04:31:19;;;;;;;9.83;5.83;;;;;;;;;;4414352;32;20171;-80
2021/01/05 04:33:44;;;;;;;12.50;6.20;;;;;;;;;;4405015;32;20134;-80
2021/01/05 04:36:09;;;;;;;10.13;6.20;;;;;;;;;;4404557;32;20161;-80
2021/01/05 04:38:35;;;;;;;10.03;5.90;;;;;;;;;;4407795;32;20137;-80
2021/01/05 04:41:02;;;;;;;10.90;6.70;;;;;;;;;;4407499;32;20139;-80
2021/01/05 04:43:33;;;;;;;9.73;6.57;;;;;;;;;;4407756;32;20192;-79
2021/01/05 04:46:20;;;;;;;13.40;6.40;;;;;;;;;;4407590;32;20134;-80
2021/01/05 04:49:05;;;;;;;10.83;6.40;;;;;;;;;;4407902;32;20184;-80
2021/01/05 04:51:50;;;;;;;11.43;5.70;;;;;;;;;;4407408;32;20138;-80
2021/01/05 04:54:45;;;;;;;9.00;6.00;;;;;;;;;;4407630;32;20164;-80
2021/01/05 04:57:10;;;;;;;8.93;6.00;;;;;;;;;;4384640;32;20251;-80
2021/01/05 04:59:40;;;;;;;10.53;6.33;;;;;;;;;;4407101;32;20133;-80
2021/01/05 05:02:16;;;;;;;10.40;6.17;;;;;;;;;;4406996;32;20222;-80
2021/01/05 05:04:45;;;;;;;10.00;5.90;;;;;;;;;;4393675;32;20204;-80
2021/01/05 05:07:11;;;;;;;10.67;6.33;;;;;;;;;;4408233;32;20212;-80
2021/01/05 05:09:42;;;;;;;10.87;6.67;;;;;;;;;;4407437;32;20146;-80
2021/01/05 05:12:10;;;;;;;10.53;6.23;;;;;;;;;;4407152;32;20150;-80
2021/01/05 05:14:56;;;;;;;10.27;6.13;;;;;;;;;;4407298;32;20146;-81
2021/01/05 05:17:42;;;;;;;10.60;6.27;;;;;;;;;;4408071;32;20177;-80
2021/01/05 05:20:17;;;;;;;10.77;6.50;;;;;;;;;;4407061;32;20129;-80
2021/01/05 05:22:57;;;;;;;10.77;6.27;;;;;;;;;;4407454;32;20212;-80
2021/01/05 05:25:28;;;;;;;12.43;6.97;;;;;;;;;;4407588;32;20130;-80
2021/01/05 05:27:56;;;;;;;11.10;6.03;;;;;;;;;;4408035;32;20130;-80
2021/01/05 05:30:48;;;;;;;9.70;6.13;;;;;;;;;;4407109;32;20219;-80
2021/01/05 05:33:19;;;;;;;10.27;6.13;;;;;;;;;;4404333;32;20154;-80
2021/01/05 05:35:47;;;;;;;10.83;6.67;;;;;;;;;;4406999;32;20203;-80
2021/01/05 05:38:31;;;;;;;10.07;6.43;;;;;;;;;;4392744;32;20204;-80
2021/01/05 05:41:02;;;;;;;11.03;6.03;;;;;;;;;;4406446;32;20164;-80
2021/01/05 05:43:28;;;;;;;11.70;6.67;;;;;;;;;;4406539;32;20142;-80
2021/01/05 05:45:57;;;;;;;11.83;6.30;;;;;;;;;;4406467;32;20186;-79
2021/01/05 05:48:22;;;;;;;19.80;11.50;;;;;;;;;;4405546;32;20138;-80
2021/01/05 05:50:53;;;;;;;13.47;6.77;;;;;;;;;;4407268;32;20216;-80
2021/01/05 05:53:22;;;;;;;13.37;6.67;;;;;;;;;;4407214;32;20160;-79
2021/01/05 05:55:59;;;;;;;11.63;6.60;;;;;;;;;;4406335;32;20165;-80
2021/01/05 05:58:29;;;;;;;11.50;6.70;;;;;;;;;;4406308;32;20316;-81
2021/01/05 06:00:56;;;;;;;11.20;6.10;;;;;;;;;;4407610;32;20131;-80
2021/01/05 06:03:23;;;;;;;12.73;6.53;;;;;;;;;;4406356;32;20177;-80
2021/01/05 06:05:48;;;;;;;15.20;7.77;;;;;;;;;;4406494;32;20147;-81
2021/01/05 06:08:16;;;;;;;13.87;6.90;;;;;;;;;;4406911;32;20249;-81
2021/01/05 06:10:45;;;;;;;13.47;7.10;;;;;;;;;;4392712;32;20185;-81
2021/01/05 06:13:11;;;;;;;12.20;6.20;;;;;;;;;;4406469;32;20171;-80
2021/01/05 06:15:36;;;;;;;11.80;6.43;;;;;;;;;;4406552;32;20551;-80
2021/01/05 06:18:06;;;;;;;14.13;7.10;;;;;;;;;;4405991;32;20199;-81
2021/01/05 06:20:31;;;;;;;12.77;6.63;;;;;;;;;;4406010;32;20169;-80
2021/01/05 06:22:57;;;;;;;12.43;7.10;;;;;;;;;;4406250;32;20546;-80
2021/01/05 06:25:22;;;;;;;12.23;6.27;;;;;;;;;;4406151;32;20146;-81
2021/01/05 06:27:47;;;;;;;12.60;6.67;;;;;;;;;;4406580;32;20130;-80
2021/01/05 06:30:13;;;;;;;13.07;6.87;;;;;;;;;;4391949;32;20223;-80
2021/01/05 06:32:39;;;;;;;13.33;7.30;;;;;;;;;;4406370;32;20138;-81
2021/01/05 06:35:04;;;;;;;14.03;7.50;;;;;;;;;;4405802;32;20196;-80
2021/01/05 06:37:29;;;;;;;15.47;7.87;;;;;;;;;;4405575;32;20134;-80
2021/01/05 06:40:00;;;;;;;16.90;8.07;;;;;;;;;;4405598;32;20156;-80
2021/01/05 06:42:25;;;;;;;15.20;7.77;;;;;;;;;;4405994;32;20145;-81
2021/01/05 06:44:50;;;;;;;16.23;8.30;;;;;;;;;;4405868;32;20170;-80
2021/01/05 06:47:16;;;;;;;16.53;8.43;;;;;;;;;;4398403;32;20181;-80
2021/01/05 06:49:41;;;;;;;15.40;8.27;;;;;;;;;;4420396;32;20181;-80
2021/01/05 06:52:12;;;;;;;18.30;8.43;;;;;;;;;;4420339;32;20142;-81
2021/01/05 06:54:37;;;;;;;16.60;8.27;;;;;;;;;;4420972;32;20134;-81
2021/01/05 06:57:03;;;;;;;16.93;8.50;;;;;;;;;;4421313;32;20160;-80
2021/01/05 06:59:31;;;;;;;15.90;8.13;;;;;;;;;;4407051;32;20215;-81
2021/01/05 07:02:01;;;;;;;17.43;8.93;;;;;;;;;;4420377;32;20180;-80
2021/01/05 07:04:27;;;;;;;16.87;8.27;;;;;;;;;;4421531;32;20142;-81
2021/01/05 07:06:55;;;;;;;17.37;9.00;;;;;;;;;;4420777;32;20494;-81
2021/01/05 07:09:24;;;;;;;16.77;8.90;;;;;;;;;;4406669;32;20174;-81
2021/01/05 07:11:52;;;;;;;15.97;8.43;;;;;;;;;;4420256;32;20624;-80
2021/01/05 07:14:19;;;;;;;17.07;8.77;;;;;;;;;;4420589;32;20531;-80
2021/01/05 07:16:48;;;;;;;16.30;8.50;;;;;;;;;;4406552;32;20579;-80
2021/01/05 07:19:13;;;;;;;16.97;9.43;;;;;;;;;;4420052;32;20180;-80
2021/01/05 07:21:44;;;;;;;17.10;7.93;;;;;;;;;;4420552;32;20138;-80
2021/01/05 07:24:13;;;;;;;16.50;8.90;;;;;;;;;;4420625;32;20146;-80
2021/01/05 07:26:50;;;;;;;17.50;8.53;;;;;;;;;;4418198;32;20651;-80
2021/01/05 07:29:16;;;;;;;16.13;8.57;;;;;;;;;;4420680;32;20156;-80
2021/01/05 07:31:42;;;;;;;17.17;9.17;;;;;;;;;;4420144;32;20203;-82
2021/01/05 07:34:10;;;;;;;16.87;8.63;;;;;;;;;;4420333;32;20146;-80
2021/01/05 07:36:38;;;;;;;17.07;8.10;;;;;;;;;;4404911;32;20181;-81
2021/01/05 07:39:14;;;;;;;19.90;9.20;;;;;;;;;;4404890;32;20189;-80
2021/01/05 07:41:42;;;;;;;17.97;9.43;;;;;;;;;;4404495;32;20173;-80
2021/01/05 07:44:07;;;;;;;15.50;8.53;;;;;;;;;;4404812;32;20138;-81
2021/01/05 07:46:32;;;;;;;18.23;8.80;;;;;;;;;;4404787;32;20524;-81
2021/01/05 07:49:03;;;;;;;19.50;9.33;;;;;;;;;;4405695;32;20142;-81
2021/01/05 07:51:28;;;;;;;18.33;9.37;;;;;;;;;;4391127;32;20162;-81
2021/01/05 07:53:53;;;;;;;15.77;8.73;;;;;;;;;;4404965;32;20165;-81
2021/01/05 07:56:29;;;;;;;20.10;9.23;;;;;;;;;;4405414;32;20135;-81
2021/01/05 07:58:56;;;;;;;19.73;9.83;;;;;;;;;;4404588;32;20188;-80
2021/01/05 08:01:31;;;;;;;20.50;9.63;;;;;;;;;;4405662;32;20173;-80
2021/01/05 08:03:59;;;;;;;21.47;9.87;;;;;;;;;;4405512;32;20138;-80
2021/01/05 08:06:25;;;;;;;18.77;9.47;;;;;;;;;;4390924;32;20167;-80
2021/01/05 08:08:55;;;;;;;17.77;9.23;;;;;;;;;;4404619;32;20191;-81
2021/01/05 08:11:21;;;;;;;18.47;9.57;;;;;;;;;;4406129;32;20138;-80
2021/01/05 08:13:46;;;;;;;21.53;9.57;;;;;;;;;;4423123;32;20211;-80
2021/01/05 08:16:12;;;;;;;19.47;9.40;;;;;;;;;;4423526;32;20173;-80
2021/01/05 08:18:38;;;;;;;20.37;9.93;;;;;;;;;;4422965;32;20168;-79
2021/01/05 08:21:03;;;;;;;20.53;9.33;;;;;;;;;;4422909;32;20467;-81
2021/01/05 08:23:29;;;;;;;20.33;10.27;;;;;;;;;;4422695;32;20150;-81
2021/01/05 08:25:54;;;;;;;20.17;9.43;;;;;;;;;;4422707;32;20199;-81
2021/01/05 08:28:20;;;;;;;18.85;9.27;;;;;;;;;;4423193;32;20449;-80
2021/01/05 08:30:54;;;;;;;20.60;9.63;;;;;;;;;;4422514;32;20206;-81
2021/01/05 08:33:19;;;;;;;23.03;10.03;;;;;;;;;;4423606;32;20181;-81
2021/01/05 08:35:45;;;;;;;18.13;9.63;;;;;;;;;;4422949;32;20134;-80
2021/01/05 08:38:10;;;;;;;20.53;10.23;;;;;;;;;;4422575;32;20137;-80
2021/01/05 08:40:36;;;;;;;19.80;9.77;;;;;;;;;;4423415;32;20133;-80
2021/01/05 08:43:03;;;;;;;18.67;9.20;;;;;;;;;;4408952;32;20197;-80
2021/01/05 08:45:28;;;;;;;20.07;9.07;;;;;;;;;;4423004;32;20240;-80
2021/01/05 08:47:57;;;;;;;19.13;9.37;;;;;;;;;;4423464;32;20141;-80
2021/01/05 08:50:32;;;;;;;17.53;9.77;;;;;;;;;;4422866;32;20209;-81
2021/01/05 08:53:05;;;;;;;19.73;9.73;;;;;;;;;;4423061;32;20144;-80
2021/01/05 08:55:33;;;;;;;18.23;9.30;;;;;;;;;;4421928;32;20150;-81
2021/01/05 08:57:59;;;;;;;21.13;9.23;;;;;;;;;;4422224;32;20504;-80
2021/01/05 09:00:26;;;;;;;19.73;9.47;;;;;;;;;;4422937;32;20202;-81
2021/01/05 09:02:54;;;;;;;18.70;9.23;;;;;;;;;;4422092;32;20197;-80
2021/01/05 09:05:20;;;;;;;17.33;8.50;;;;;;;;;;4408819;32;20134;-80
2021/01/05 09:07:45;;;;;;;17.50;9.07;;;;;;;;;;4408306;32;20562;-80
2021/01/05 09:10:18;;;;;;;17.27;8.43;;;;;;;;;;4408559;32;20241;-81
2021/01/05 09:12:43;;;;;;;16.73;8.77;;;;;;;;;;4422482;32;20134;-81
2021/01/05 09:15:11;;;;;;;16.33;8.83;;;;;;;;;;4422309;32;20207;-80
2021/01/05 09:17:36;;;;;;;16.27;8.23;;;;;;;;;;4422200;32;20463;-81
2021/01/05 09:20:05;;;;;;;17.20;8.83;;;;;;;;;;4421701;32;20205;-81
2021/01/05 09:22:30;;;;;;;18.17;8.93;;;;;;;;;;4422186;32;20142;-81
2021/01/05 09:24:56;;;;;;;17.17;8.90;;;;;;;;;;4421804;32;20473;-81
2021/01/05 09:27:21;;;;;;;19.40;9.30;;;;;;;;;;4421794;32;20500;-81
2021/01/05 09:29:47;;;;;;;20.03;9.53;;;;;;;;;;4421975;32;20471;-81
2021/01/05 09:32:12;;;;;;;17.60;9.07;;;;;;;;;;4422085;32;20283;-81
2021/01/05 09:34:41;;;;;;;18.37;8.77;;;;;;;;;;4422158;32;20217;-80
2021/01/05 09:37:09;;;;;;;17.17;8.13;;;;;;;;;;4422585;32;20194;-81
2021/01/05 09:39:34;;;;;;;18.70;9.00;;;;;;;;;;4421465;32;20191;-80
2021/01/05 09:42:01;;;;;;;17.37;8.87;;;;;;;;;;4421916;32;20154;-79
2021/01/05 09:44:27;;;;;;;18.17;8.60;;;;;;;;;;4422944;32;20142;-81
2021/01/05 09:46:53;;;;;;;15.83;8.23;;;;;;;;;;4421768;32;20180;-81
2021/01/05 09:49:18;;;;;;;13.33;7.40;;;;;;;;;;4421390;32;20210;-81
2021/01/05 09:51:46;;;;;;;16.33;9.80;;;;;;;;;;4421331;32;20139;-81
2021/01/05 09:54:20;;;;;;;14.97;7.20;;;;;;;;;;4421692;32;20169;-81
2021/01/05 09:56:50;;;;;;;14.27;6.90;;;;;;;;;;4421795;32;20133;-80
2021/01/05 09:59:15;;;;;;;17.60;8.20;;;;;;;;;;4407142;32;20170;-80
2021/01/05 10:01:40;;;;;;;14.70;7.60;;;;;;;;;;4421083;32;20146;-80
2021/01/05 10:04:06;;;;;;;15.67;7.87;;;;;;;;;;4399556;32;20182;-80
2021/01/05 10:06:36;;;;;;;14.63;6.73;;;;;;;;;;4406011;32;20173;-81
2021/01/05 10:09:08;;;;;;;15.47;7.83;;;;;;;;;;4406280;32;20228;-80
2021/01/05 10:11:34;;;;;;;13.17;7.00;;;;;;;;;;4392371;32;20584;-80
2021/01/05 10:13:59;;;;;;;15.33;7.70;;;;;;;;;;4405757;32;20168;-80
2021/01/05 10:16:25;;;;;;;15.67;8.13;;;;;;;;;;4406441;32;20137;-81
2021/01/05 10:18:50;;;;;;;17.13;8.03;;;;;;;;;;4392293;32;20169;-80
2021/01/05 10:21:16;;;;;;;18.27;7.77;;;;;;;;;;4406236;32;20150;-80
2021/01/05 10:23:41;;;;;;;15.93;8.20;;;;;;;;;;4408598;32;20193;-81
2021/01/05 10:26:08;;;;;;;18.07;7.73;;;;;;;;;;4407721;32;20168;-80
2021/01/05 10:28:33;;;;;;;17.30;7.90;;;;;;;;;;4407364;32;20225;-80
2021/01/05 10:31:00;;;;;;;17.83;8.20;;;;;;;;;;4421012;32;20489;-81
2021/01/05 10:33:30;;;;;;;17.50;8.27;;;;;;;;;;4406881;32;20180;-81
2021/01/05 10:36:05;;;;;;;18.27;8.47;;;;;;;;;;4420977;32;20477;-80
2021/01/05 10:38:30;;;;;;;18.13;7.73;;;;;;;;;;4421689;32;20133;-80
2021/01/05 10:40:56;;;;;;;17.97;8.37;;;;;;;;;;4421070;32;20534;-80
2021/01/05 10:43:21;;;;;;;17.33;8.20;;;;;;;;;;4419967;32;20589;-81
2021/01/05 10:45:49;;;;;;;15.17;7.83;;;;;;;;;;4405247;32;20142;-80
2021/01/05 10:48:14;;;;;;;13.40;7.40;;;;;;;;;;4405559;32;20548;-80
2021/01/05 10:50:42;;;;;;;15.53;7.70;;;;;;;;;;4405565;32;20197;-80
2021/01/05 10:53:10;;;;;;;14.57;8.07;;;;;;;;;;4405291;32;20158;-80
2021/01/05 10:55:35;;;;;;;13.40;6.97;;;;;;;;;;4395547;32;20215;-81
2021/01/05 10:58:02;;;;;;;14.43;7.87;;;;;;;;;;4420340;32;20200;-80
2021/01/05 11:00:28;;;;;;;14.57;7.40;;;;;;;;;;4420836;32;20150;-80
2021/01/05 11:02:53;;;;;;;16.00;7.60;;;;;;;;;;4420665;32;20211;-81
2021/01/05 11:05:18;;;;;;;15.00;7.80;;;;;;;;;;4420692;32;20483;-80
2021/01/05 11:07:48;;;;;;;17.67;8.10;;;;;;;;;;4420182;32;20164;-80
2021/01/05 11:10:14;;;;;;;16.57;7.83;;;;;;;;;;4420640;32;20199;-80
2021/01/05 11:12:39;;;;;;;13.67;7.07;;;;;;;;;;4406280;32;20169;-80
2021/01/05 11:15:04;;;;;;;16.80;7.37;;;;;;;;;;4420696;32;20195;-80
2021/01/05 11:17:30;;;;;;;13.03;7.50;;;;;;;;;;4420973;32;20141;-80
2021/01/05 11:20:03;;;;;;;14.57;7.60;;;;;;;;;;4420636;32;20158;-80
2021/01/05 11:22:28;;;;;;;15.03;7.40;;;;;;;;;;4420639;32;20138;-80
2021/01/05 11:24:54;;;;;;;14.33;7.23;;;;;;;;;;4420873;32;20190;-80
2021/01/05 11:27:19;;;;;;;15.33;7.73;;;;;;;;;;4420200;32;20179;-81
2021/01/05 11:29:49;;;;;;;15.53;7.93;;;;;;;;;;4418971;32;20150;-81
2021/01/05 11:32:16;;;;;;;13.27;7.07;;;;;;;;;;4415184;32;20218;-79
2021/01/05 11:34:41;;;;;;;14.00;6.77;;;;;;;;;;4418215;32;20692;-80
2021/01/05 11:37:11;;;;;;;11.73;6.23;;;;;;;;;;4418011;32;20138;-79
2021/01/05 11:39:37;;;;;;;11.60;6.37;;;;;;;;;;4420357;32;20138;-77
2021/01/05 11:42:03;;;;;;;14.10;6.53;;;;;;;;;;4406716;32;20188;-79
2021/01/05 11:44:29;;;;;;;11.87;6.63;;;;;;;;;;4419153;32;20222;-79
2021/01/05 11:47:00;;;;;;;13.13;6.43;;;;;;;;;;4421938;32;20215;-79
2021/01/05 11:49:26;;;;;;;11.07;5.60;;;;;;;;;;4423268;32;20164;-79
2021/01/05 11:51:52;;;;;;;12.43;5.70;;;;;;;;;;4423575;32;20189;-79
2021/01/05 11:54:18;;;;;;;11.57;5.60;;;;;;;;;;4408740;32;20227;-79
2021/01/05 11:56:47;;;;;;;12.63;6.53;;;;;;;;;;4423464;32;20168;-80
2021/01/05 11:59:16;;;;;;;12.27;5.13;;;;;;;;;;4409045;32;20258;-80
2021/01/05 12:01:41;;;;;;;13.07;5.80;;;;;;;;;;4422900;32;20142;-81
2021/01/05 12:04:08;;;;;;;12.57;5.50;;;;;;;;;;4422506;32;20622;-81
2021/01/05 12:06:33;;;;;;;12.50;5.57;;;;;;;;;;4422824;32;20169;-80
2021/01/05 12:08:59;;;;;;;10.80;5.37;;;;;;;;;;4409358;32;20161;-80
2021/01/05 12:11:26;;;;;;;8.70;4.90;;;;;;;;;;4422942;32;20295;-81
2021/01/05 12:13:52;;;;;;;9.07;5.30;;;;;;;;;;4418759;32;20250;-80
2021/01/05 12:16:27;;;;;;;7.77;4.33;;;;;;;;;;4400307;32;20177;-80
2021/01/05 12:18:53;;;;;;;10.23;4.70;;;;;;;;;;4423085;32;20142;-80
2021/01/05 12:21:23;;;;;;;9.73;4.90;;;;;;;;;;4422479;32;20158;-80
2021/01/05 12:23:48;;;;;;;9.33;5.03;;;;;;;;;;4417340;32;20180;-81
2021/01/05 12:26:21;;;;;;;8.40;4.87;;;;;;;;;;4407300;32;20166;-80
2021/01/05 12:28:46;;;;;;;11.00;5.17;;;;;;;;;;4411080;32;20173;-79
2021/01/05 12:31:11;;;;;;;10.10;5.23;;;;;;;;;;4422637;32;20177;-80
2021/01/05 12:33:36;;;;;;;12.10;5.70;;;;;;;;;;4408510;32;20188;-80
2021/01/05 12:36:02;;;;;;;10.47;5.40;;;;;;;;;;4422741;32;20503;-79
2021/01/05 12:38:27;;;;;;;12.07;6.03;;;;;;;;;;4422154;32;20150;-80
2021/01/05 12:40:56;;;;;;;10.23;5.80;;;;;;;;;;4422708;32;20158;-80
2021/01/05 12:43:21;;;;;;;11.47;5.83;;;;;;;;;;4408634;32;20221;-80
2021/01/05 12:45:46;;;;;;;10.80;5.83;;;;;;;;;;4422178;32;20570;-79
2021/01/05 12:48:12;;;;;;;9.97;5.37;;;;;;;;;;4418246;32;20213;-79
2021/01/05 12:50:37;;;;;;;11.87;5.63;;;;;;;;;;4422012;32;20146;-80
2021/01/05 12:53:03;;;;;;;14.57;5.87;;;;;;;;;;4422508;32;20138;-80
2021/01/05 12:55:31;;;;;;;10.60;5.27;;;;;;;;;;4421131;32;20231;-80
2021/01/05 12:57:57;;;;;;;11.53;5.67;;;;;;;;;;4419348;32;20216;-79
2021/01/05 13:00:26;;;;;;;13.57;5.43;;;;;;;;;;4418497;32;20165;-80
2021/01/05 13:02:51;;;;;;;10.23;5.43;;;;;;;;;;4420816;32;20207;-80
2021/01/05 13:05:17;;;;;;;9.93;4.93;;;;;;;;;;4422715;32;20158;-80
2021/01/05 13:07:42;;;;;;;10.03;5.33;;;;;;;;;;4408593;32;20224;-80
2021/01/05 13:10:07;;;;;;;7.80;4.77;;;;;;;;;;4408008;32;20161;-79
2021/01/05 13:12:33;;;;;;;9.53;5.03;;;;;;;;;;4407763;32;20203;-80
2021/01/05 13:14:59;;;;;;;10.07;5.57;;;;;;;;;;4408343;32;20200;-81
2021/01/05 13:17:26;;;;;;;9.37;5.20;;;;;;;;;;4408460;32;20599;-81
2021/01/05 13:19:52;;;;;;;9.87;5.13;;;;;;;;;;4408110;32;20201;-80
2021/01/05 13:22:17;;;;;;;11.33;5.80;;;;;;;;;;4408148;32;20196;-80
2021/01/05 13:24:42;;;;;;;11.77;5.30;;;;;;;;;;4407671;32;20157;-80
2021/01/05 13:27:08;;;;;;;10.17;5.20;;;;;;;;;;4408049;32;20524;-81
2021/01/05 13:29:39;;;;;;;11.17;5.20;;;;;;;;;;4397848;32;20185;-80
2021/01/05 13:32:05;;;;;;;8.17;5.03;;;;;;;;;;4404123;32;20169;-79
2021/01/05 13:34:32;;;;;;;10.10;5.90;;;;;;;;;;4403130;32;20168;-80
2021/01/05 13:36:58;;;;;;;11.97;5.10;;;;;;;;;;4419369;32;20600;-80
2021/01/05 13:39:26;;;;;;;8.10;4.30;;;;;;;;;;4414143;32;20169;-78
2021/01/05 13:41:51;;;;;;;9.23;4.53;;;;;;;;;;4395234;32;20994;-80
2021/01/05 13:44:17;;;;;;;8.30;4.90;;;;;;;;;;4396990;32;20196;-80
2021/01/05 13:46:42;;;;;;;9.17;4.90;;;;;;;;;;4418613;32;20310;-81
2021/01/05 13:49:12;;;;;;;8.93;4.57;;;;;;;;;;4422833;32;20768;-81
2021/01/05 13:51:40;;;;;;;8.17;4.63;;;;;;;;;;4422994;32;20165;-81
2021/01/05 13:54:06;;;;;;;8.83;4.30;;;;;;;;;;4422467;32;20232;-79
2021/01/05 13:56:31;;;;;;;12.13;5.27;;;;;;;;;;4420975;32;20467;-80
2021/01/05 13:59:00;;;;;;;9.27;4.80;;;;;;;;;;4420980;32;20200;-80
2021/01/05 14:01:26;;;;;;;11.90;5.00;;;;;;;;;;4407709;32;20165;-80
2021/01/05 14:03:52;;;;;;;8.03;4.70;;;;;;;;;;4427151;32;20511;-80
2021/01/05 14:06:24;;;;;;;13.43;5.10;;;;;;;;;;4407751;32;20613;-81
2021/01/05 14:08:49;;;;;;;15.43;7.90;;;;;;;;;;4407453;32;20196;-81
2021/01/05 14:11:16;;;;;;;11.23;5.73;;;;;;;;;;4407277;32;20196;-81
2021/01/05 14:13:41;;;;;;;12.50;5.53;;;;;;;;;;4407147;32;20169;-80
2021/01/05 14:16:07;;;;;;;11.33;5.70;;;;;;;;;;4406879;32;20235;-80
2021/01/05 14:18:32;;;;;;;14.07;6.70;;;;;;;;;;4407350;32;20511;-80
2021/01/05 14:21:03;;;;;;;12.23;6.17;;;;;;;;;;4420922;32;20169;-80
2021/01/05 14:23:30;;;;;;;14.73;6.60;;;;;;;;;;4406972;32;20180;-79
2021/01/05 14:26:00;;;;;;;10.40;5.77;;;;;;;;;;4421096;32;20150;-80
2021/01/05 14:28:25;;;;;;;13.47;6.77;;;;;;;;;;4424653;32;20162;-80
2021/01/05 14:30:50;;;;;;;14.97;6.30;;;;;;;;;;4408401;32;20563;-80
2021/01/05 14:33:16;;;;;;;12.57;5.93;;;;;;;;;;4421695;32;20199;-80
2021/01/05 14:35:44;;;;;;;12.77;6.50;;;;;;;;;;4406276;32;20227;-80
2021/01/05 14:38:09;;;;;;;11.87;6.10;;;;;;;;;;4420837;32;20135;-81
2021/01/05 14:40:35;;;;;;;12.40;6.37;;;;;;;;;;4406846;32;20183;-80